createdAt,value
2019-01-20T00:01:29.002Z,2.53
2019-01-20T00:03:59.551Z,2.53
2019-01-20T00:06:30.009Z,2.47
2019-01-20T00:09:00.459Z,3.10
2019-01-20T00:11:30.872Z,4.33
2019-01-20T00:14:01.340Z,2.43
2019-01-20T00:16:31.812Z,2.73
2019-01-20T00:19:02.258Z,3.93
2019-01-20T00:21:32.697Z,4.60
2019-01-20T00:24:03.250Z,4.30
2019-01-20T00:26:33.779Z,4.40
2019-01-20T00:29:04.211Z,4.17
2019-01-20T00:31:34.650Z,3.03
2019-01-20T00:34:05.101Z,1.80
2019-01-20T00:36:35.714Z,3.30
2019-01-20T00:39:09.695Z,2.83
2019-01-20T00:41:40.137Z,2.93
2019-01-20T00:44:10.602Z,4.67
2019-01-20T00:46:41.048Z,2.93
2019-01-20T00:49:11.511Z,12.53
2019-01-20T00:51:41.949Z,3.03
2019-01-20T00:54:12.456Z,3.90
2019-01-20T00:56:43.446Z,5.27
2019-01-20T00:59:15.287Z,3.40
2019-01-20T01:01:45.845Z,4.57
2019-01-20T01:04:16.514Z,3.33
2019-01-20T01:06:47.090Z,4.10
2019-01-20T01:09:17.613Z,3.03
2019-01-20T01:11:48.073Z,5.80
2019-01-20T01:14:18.899Z,3.70
2019-01-20T01:16:49.343Z,6.83
2019-01-20T01:19:19.858Z,2.77
2019-01-20T01:21:50.382Z,4.03
2019-01-20T01:24:20.818Z,8.60
2019-01-20T01:26:51.276Z,2.87
2019-01-20T01:29:21.711Z,6.83
2019-01-20T01:31:52.143Z,3.70
2019-01-20T01:34:22.557Z,5.23
2019-01-20T01:36:53.039Z,5.00
2019-01-20T01:39:23.443Z,4.33
2019-01-20T01:41:53.973Z,4.00
2019-01-20T01:44:24.451Z,4.23
2019-01-20T01:46:54.823Z,3.63
2019-01-20T01:49:25.277Z,3.93
2019-01-20T01:51:55.677Z,2.97
2019-01-20T01:54:26.146Z,2.43
2019-01-20T01:56:56.582Z,7.10
2019-01-20T01:59:26.987Z,6.03
2019-01-20T02:01:57.414Z,2.50
2019-01-20T02:04:27.901Z,5.30
2019-01-20T02:06:58.417Z,5.00
2019-01-20T02:09:29.113Z,4.57
2019-01-20T02:11:59.516Z,2.80
2019-01-20T02:14:29.971Z,4.67
2019-01-20T02:17:00.409Z,6.13
2019-01-20T02:19:32.730Z,4.70
2019-01-20T02:22:03.204Z,3.90
2019-01-20T02:24:33.624Z,2.77
2019-01-20T02:27:04.055Z,3.93
2019-01-20T02:29:34.500Z,4.53
2019-01-20T02:32:05.317Z,5.20
2019-01-20T02:34:35.940Z,6.63
2019-01-20T02:37:06.593Z,3.60
2019-01-20T02:39:37.050Z,9.47
2019-01-20T02:42:07.511Z,4.87
2019-01-20T02:44:37.960Z,7.77
2019-01-20T02:47:08.703Z,3.83
2019-01-20T02:49:39.243Z,5.27
2019-01-20T02:52:09.658Z,3.27
2019-01-20T02:54:42.387Z,6.10
2019-01-20T02:57:12.805Z,8.20
2019-01-20T02:59:43.191Z,7.43
2019-01-20T03:02:13.609Z,3.87
2019-01-20T03:04:44.215Z,5.30
2019-01-20T03:07:14.647Z,8.60
2019-01-20T03:09:45.091Z,7.27
2019-01-20T03:12:15.538Z,4.40
2019-01-20T03:14:45.956Z,7.83
2019-01-20T03:17:16.386Z,5.00
2019-01-20T03:19:46.882Z,8.20
2019-01-20T03:22:17.621Z,6.60
2019-01-20T03:24:48.043Z,7.67
2019-01-20T03:27:18.485Z,9.20
2019-01-20T03:29:48.929Z,9.90
2019-01-20T03:32:19.566Z,5.20
2019-01-20T03:34:50.082Z,4.50
2019-01-20T03:37:20.517Z,13.67
2019-01-20T03:39:51.034Z,9.97
2019-01-20T03:42:21.571Z,9.10
2019-01-20T03:44:52.098Z,7.00
2019-01-20T03:47:22.526Z,5.77
2019-01-20T03:49:52.976Z,6.43
2019-01-20T03:52:23.407Z,7.03
2019-01-20T03:54:53.918Z,5.27
2019-01-20T03:57:24.406Z,8.80
2019-01-20T03:59:55.263Z,8.03
2019-01-20T04:02:25.821Z,9.00
2019-01-20T04:04:56.255Z,8.90
2019-01-20T04:07:26.706Z,8.53
2019-01-20T04:09:57.145Z,17.90
2019-01-20T04:12:27.559Z,4.73
2019-01-20T04:14:58.014Z,6.57
2019-01-20T04:17:28.849Z,7.80
2019-01-20T04:19:59.378Z,7.63
2019-01-20T04:22:29.917Z,5.23
2019-01-20T04:25:00.358Z,5.67
2019-01-20T04:27:30.779Z,7.00
2019-01-20T04:30:01.372Z,10.57
2019-01-20T04:32:32.072Z,6.50
2019-01-20T04:35:02.564Z,14.97
2019-01-20T04:37:33.011Z,8.27
2019-01-20T04:40:03.449Z,13.03
2019-01-20T04:42:35.719Z,7.47
2019-01-20T04:45:08.642Z,8.20
2019-01-20T04:47:39.167Z,8.67
2019-01-20T04:50:13.681Z,7.90
2019-01-20T04:52:44.978Z,9.63
2019-01-20T04:55:16.336Z,6.93
2019-01-20T04:57:50.509Z,5.63
2019-01-20T05:00:23.741Z,6.80
2019-01-20T05:02:54.192Z,11.37
2019-01-20T05:05:24.788Z,7.03
2019-01-20T05:07:55.238Z,13.57
2019-01-20T05:10:25.645Z,6.03
2019-01-20T05:12:56.156Z,7.90
2019-01-20T05:15:27.020Z,4.93
2019-01-20T05:17:57.467Z,8.20
2019-01-20T05:20:27.918Z,9.30
2019-01-20T05:22:58.392Z,4.90
2019-01-20T05:25:28.893Z,6.97
2019-01-20T05:27:59.386Z,15.83
2019-01-20T05:30:30.083Z,12.00
2019-01-20T05:33:00.887Z,8.80
2019-01-20T05:35:31.584Z,9.80
2019-01-20T05:38:02.081Z,21.83
2019-01-20T05:40:32.530Z,6.23
2019-01-20T05:43:02.964Z,9.33
2019-01-20T05:45:33.399Z,12.53
2019-01-20T05:48:03.839Z,8.30
2019-01-20T05:50:34.250Z,7.60
2019-01-20T05:53:04.891Z,12.17
2019-01-20T05:55:35.792Z,10.50
2019-01-20T05:58:06.466Z,7.70
2019-01-20T06:00:37.403Z,9.60
2019-01-20T06:03:07.884Z,16.70
2019-01-20T06:05:38.296Z,9.40
2019-01-20T06:08:08.747Z,6.73
2019-01-20T06:10:39.318Z,9.70
2019-01-20T06:13:09.857Z,7.80
2019-01-20T06:15:40.299Z,7.17
2019-01-20T06:18:10.707Z,9.60
2019-01-20T06:20:41.127Z,5.97
2019-01-20T06:23:11.585Z,8.50
2019-01-20T06:25:42.001Z,8.67
2019-01-20T06:28:12.449Z,7.57
2019-01-20T06:30:43.149Z,10.23
2019-01-20T06:33:13.598Z,14.73
2019-01-20T06:35:44.018Z,7.97
2019-01-20T06:38:14.441Z,7.17
2019-01-20T06:40:44.874Z,8.53
2019-01-20T06:43:15.290Z,12.90
2019-01-20T06:45:45.718Z,7.20
2019-01-20T06:48:16.145Z,9.13
2019-01-20T06:50:46.576Z,10.23
2019-01-20T06:53:16.975Z,11.83
2019-01-20T06:55:47.480Z,18.03
2019-01-20T06:58:17.942Z,11.40
2019-01-20T07:00:48.380Z,8.77
2019-01-20T07:03:18.807Z,11.33
2019-01-20T07:05:49.252Z,8.93
2019-01-20T07:08:19.719Z,12.67
2019-01-20T07:10:50.163Z,11.87
2019-01-20T07:13:20.769Z,9.70
2019-01-20T07:15:51.215Z,17.00
2019-01-20T07:18:21.655Z,15.37
2019-01-20T07:20:52.096Z,13.90
2019-01-20T07:23:22.550Z,10.50
2019-01-20T07:25:53.077Z,15.63
2019-01-20T07:28:23.495Z,17.30
2019-01-20T07:30:53.937Z,16.40
2019-01-20T07:33:25.319Z,6.53
2019-01-20T07:35:55.825Z,13.13
2019-01-20T07:38:26.493Z,9.17
2019-01-20T07:40:56.957Z,8.93
2019-01-20T07:43:27.390Z,7.23
2019-01-20T07:45:57.849Z,12.83
2019-01-20T07:48:28.325Z,10.23
2019-01-20T07:50:58.775Z,10.97
2019-01-20T07:53:29.245Z,8.77
2019-01-20T07:55:59.703Z,10.37
2019-01-20T07:58:30.300Z,11.00
2019-01-20T08:01:00.800Z,13.53
2019-01-20T08:03:31.249Z,13.13
2019-01-20T08:06:01.684Z,10.47
2019-01-20T08:08:32.172Z,14.40
2019-01-20T08:11:02.613Z,13.67
2019-01-20T08:13:33.270Z,20.03
2019-01-20T08:16:03.793Z,10.83
2019-01-20T08:18:34.219Z,11.53
2019-01-20T08:21:04.782Z,13.77
2019-01-20T08:23:35.228Z,8.60
2019-01-20T08:26:07.052Z,8.00
2019-01-20T08:28:37.488Z,13.20
2019-01-20T08:31:07.947Z,13.27
2019-01-20T08:33:38.392Z,12.87
2019-01-20T08:36:08.813Z,9.97
2019-01-20T08:38:39.267Z,13.43
2019-01-20T08:41:09.700Z,16.40
2019-01-20T08:43:40.993Z,14.30
2019-01-20T08:46:47.900Z,29.13
2019-01-20T08:49:18.402Z,11.20
2019-01-20T08:51:48.841Z,14.87
2019-01-20T08:54:19.302Z,13.03
2019-01-20T08:56:49.756Z,12.90
2019-01-20T08:59:20.508Z,14.80
2019-01-20T09:01:50.951Z,13.60
2019-01-20T09:04:21.445Z,9.17
2019-01-20T09:06:51.947Z,12.43
2019-01-20T09:09:22.436Z,17.40
2019-01-20T09:11:52.866Z,14.93
2019-01-20T09:14:23.497Z,12.93
2019-01-20T09:16:53.943Z,21.63
2019-01-20T09:19:24.419Z,14.10
2019-01-20T09:21:54.954Z,29.47
2019-01-20T09:24:25.439Z,18.10
2019-01-20T09:26:55.906Z,14.27
2019-01-20T09:29:27.305Z,17.60
2019-01-20T09:32:02.157Z,16.20
2019-01-20T09:34:34.578Z,26.90
2019-01-20T09:37:05.991Z,15.57
2019-01-20T09:39:38.234Z,22.47
2019-01-20T09:42:10.033Z,20.87
2019-01-20T09:44:41.318Z,20.97
2019-01-20T09:47:13.747Z,21.57
2019-01-20T09:49:45.443Z,20.17
2019-01-20T09:52:16.961Z,23.03
2019-01-20T09:54:48.010Z,19.53
2019-01-20T09:57:21.751Z,20.73
2019-01-20T09:59:52.931Z,19.33
2019-01-20T10:02:25.162Z,21.93
2019-01-20T10:04:56.317Z,16.40
2019-01-20T10:07:27.758Z,17.80
2019-01-20T10:09:58.678Z,23.00
2019-01-20T10:12:30.690Z,19.80
2019-01-20T10:15:01.127Z,18.63
2019-01-20T10:17:31.992Z,20.93
2019-01-20T10:20:04.106Z,22.37
2019-01-20T10:22:36.324Z,25.03
2019-01-20T10:25:07.401Z,18.07
2019-01-20T10:27:41.528Z,17.83
2019-01-20T10:30:28.009Z,19.53
2019-01-20T10:33:00.696Z,20.10
2019-01-20T10:35:39.016Z,21.97
2019-01-20T10:38:11.857Z,20.93
2019-01-20T10:40:43.119Z,18.47
2019-01-20T10:43:15.278Z,21.77
2019-01-20T10:45:47.265Z,23.30
2019-01-20T10:48:19.415Z,17.60
2019-01-20T10:50:51.428Z,18.40
2019-01-20T10:53:22.741Z,23.32
2019-01-20T10:55:53.937Z,29.17
2019-01-20T10:58:25.990Z,17.13
2019-01-20T11:00:57.295Z,21.67
2019-01-20T11:03:28.710Z,18.00
2019-01-20T11:06:00.300Z,22.73
2019-01-20T11:08:31.382Z,17.97
2019-01-20T11:11:03.148Z,19.27
2019-01-20T11:13:35.000Z,21.50
2019-01-20T11:16:07.270Z,20.20
2019-01-20T11:18:38.544Z,22.77
2019-01-20T11:21:09.764Z,18.37
2019-01-20T11:23:41.928Z,19.87
2019-01-20T11:26:13.521Z,20.93
2019-01-20T11:28:44.065Z,19.63
2019-01-20T11:31:14.912Z,19.00
2019-01-20T11:33:45.372Z,17.70
2019-01-20T11:36:15.921Z,21.70
2019-01-20T11:38:46.597Z,18.60
2019-01-20T11:41:17.115Z,16.43
2019-01-20T11:43:47.620Z,18.57
2019-01-20T11:46:18.255Z,21.33
2019-01-20T11:48:48.711Z,22.67
2019-01-20T11:51:21.878Z,26.00
2019-01-20T11:53:52.398Z,25.53
2019-01-20T11:56:22.916Z,31.10
2019-01-20T11:58:53.575Z,18.60
2019-01-20T12:01:24.347Z,18.73
2019-01-20T12:03:55.661Z,17.10
2019-01-20T12:06:26.187Z,20.43
2019-01-20T12:08:56.683Z,19.47
2019-01-20T12:11:27.228Z,19.73
2019-01-20T12:13:57.902Z,20.33
2019-01-20T12:16:28.624Z,17.73
2019-01-20T12:18:59.243Z,24.23
2019-01-20T12:21:30.004Z,20.70
2019-01-20T12:24:00.725Z,19.87
2019-01-20T12:26:31.330Z,22.10
2019-01-20T12:29:01.930Z,21.47
2019-01-20T12:31:32.426Z,24.87
2019-01-20T12:34:03.095Z,20.93
2019-01-20T12:36:33.611Z,23.10
2019-01-20T12:39:07.725Z,18.67
2019-01-20T12:41:38.248Z,20.47
2019-01-20T12:44:08.961Z,18.30
2019-01-20T12:46:39.561Z,19.23
2019-01-20T12:49:09.992Z,22.73
2019-01-20T12:51:40.466Z,23.13
2019-01-20T12:54:10.909Z,21.60
2019-01-20T12:56:41.424Z,18.60
2019-01-20T12:59:11.944Z,21.80
2019-01-20T13:01:42.408Z,18.43
2019-01-20T13:04:13.162Z,22.93
2019-01-20T13:06:43.595Z,21.43
2019-01-20T13:09:14.020Z,17.73
2019-01-20T13:11:44.462Z,25.93
2019-01-20T13:14:14.949Z,20.90
2019-01-20T13:16:45.424Z,20.47
2019-01-20T13:19:16.029Z,19.30
2019-01-20T13:21:46.559Z,21.23
2019-01-20T13:24:17.076Z,20.63
2019-01-20T13:26:47.528Z,23.57
2019-01-20T13:29:18.131Z,18.07
2019-01-20T13:31:49.896Z,20.07
2019-01-20T13:34:20.569Z,18.73
2019-01-20T13:36:51.060Z,18.40
2019-01-20T13:39:21.488Z,27.40
2019-01-20T13:41:51.949Z,21.10
2019-01-20T13:44:22.592Z,18.27
2019-01-20T13:46:53.217Z,21.63
2019-01-20T13:49:23.718Z,19.63
2019-01-20T13:51:56.187Z,21.97
2019-01-20T13:54:26.701Z,25.43
2019-01-20T13:56:57.150Z,19.33
2019-01-20T13:59:27.604Z,30.17
2019-01-20T14:01:58.118Z,37.80
2019-01-20T14:04:28.939Z,19.27
2019-01-20T14:06:59.592Z,21.40
2019-01-20T14:09:30.159Z,20.67
2019-01-20T14:12:00.708Z,17.37
2019-01-20T14:14:31.221Z,27.00
2019-01-20T14:17:01.691Z,17.07
2019-01-20T14:19:32.361Z,20.97
2019-01-20T14:22:02.952Z,16.07
2019-01-20T14:24:33.558Z,17.13
2019-01-20T14:27:04.030Z,17.87
2019-01-20T14:29:34.484Z,25.93
2019-01-20T14:32:04.944Z,21.57
2019-01-20T14:34:35.334Z,21.43
2019-01-20T14:37:05.872Z,19.67
2019-01-20T14:39:36.296Z,25.83
2019-01-20T14:42:06.813Z,18.90
2019-01-20T14:44:37.329Z,16.53
2019-01-20T14:47:07.800Z,26.93
2019-01-20T14:49:38.231Z,16.80
2019-01-20T14:52:08.708Z,30.30
2019-01-20T14:54:39.182Z,44.37
2019-01-20T14:57:09.674Z,19.10
2019-01-20T14:59:40.149Z,18.67
2019-01-20T15:02:10.565Z,18.90
2019-01-20T15:04:41.023Z,20.40
2019-01-20T15:07:11.483Z,18.40
2019-01-20T15:09:41.938Z,24.10
2019-01-20T15:12:15.455Z,17.70
2019-01-20T15:14:46.149Z,19.57
2019-01-20T15:17:16.569Z,22.63
2019-01-20T15:19:47.021Z,19.40
2019-01-20T15:22:17.454Z,19.77
2019-01-20T15:24:47.929Z,18.20
2019-01-20T15:27:18.397Z,29.57
2019-01-20T15:29:48.873Z,21.53
2019-01-20T15:32:19.426Z,18.87
2019-01-20T15:34:49.867Z,26.20
2019-01-20T15:37:20.349Z,15.90
2019-01-20T15:39:50.830Z,15.47
2019-01-20T15:42:21.246Z,26.77
2019-01-20T15:44:51.823Z,19.30
2019-01-20T15:47:22.314Z,18.90
2019-01-20T15:49:52.941Z,16.60
2019-01-20T15:52:23.553Z,19.67
2019-01-20T15:54:54.005Z,21.80
2019-01-20T15:57:24.805Z,15.33
2019-01-20T15:59:55.271Z,17.50
2019-01-20T16:02:25.837Z,16.40
2019-01-20T16:04:56.336Z,18.07
2019-01-20T16:07:26.915Z,14.10
2019-01-20T16:09:57.486Z,19.53
2019-01-20T16:12:28.008Z,18.73
2019-01-20T16:14:58.460Z,15.90
2019-01-20T16:17:28.900Z,19.67
2019-01-20T16:20:00.987Z,24.50
2019-01-20T16:22:31.680Z,24.40
2019-01-20T16:25:02.138Z,15.60
2019-01-20T16:27:32.743Z,16.83
2019-01-20T16:30:03.628Z,13.10
2019-01-20T16:32:34.126Z,14.03
2019-01-20T16:35:05.363Z,17.73
2019-01-20T16:37:36.696Z,13.40
2019-01-20T16:40:08.961Z,11.83
2019-01-20T16:42:39.427Z,15.97
2019-01-20T16:45:12.590Z,17.53
2019-01-20T16:47:43.044Z,16.30
2019-01-20T16:50:18.210Z,14.97
2019-01-20T16:52:48.820Z,19.33
2019-01-20T16:55:19.309Z,17.03
2019-01-20T16:57:51.684Z,17.23
2019-01-20T17:00:26.265Z,19.20
2019-01-20T17:02:56.983Z,13.33
2019-01-20T17:05:27.466Z,22.70
2019-01-20T17:07:58.173Z,11.67
2019-01-20T17:10:35.192Z,12.23
2019-01-20T17:13:06.995Z,20.17
2019-01-20T17:15:40.913Z,16.67
2019-01-20T17:18:14.920Z,14.97
2019-01-20T17:20:45.698Z,15.60
2019-01-20T17:23:16.492Z,15.47
2019-01-20T17:25:47.073Z,12.57
2019-01-20T17:28:17.533Z,19.90
2019-01-20T17:30:48.265Z,12.83
2019-01-20T17:33:18.848Z,12.93
2019-01-20T17:35:49.443Z,10.77
2019-01-20T17:38:20.053Z,18.10
2019-01-20T17:40:50.529Z,12.00
2019-01-20T17:43:21.100Z,17.50
2019-01-20T17:45:51.674Z,12.10
2019-01-20T17:48:22.147Z,15.30
2019-01-20T17:50:52.692Z,11.20
2019-01-20T17:53:23.330Z,15.07
2019-01-20T17:55:54.809Z,14.63
2019-01-20T17:58:28.274Z,6.07
2019-01-20T18:01:01.609Z,9.50
2019-01-20T18:03:32.104Z,13.87
2019-01-20T18:06:02.730Z,7.97
2019-01-20T18:08:40.618Z,18.00
2019-01-20T18:11:11.140Z,10.20
2019-01-20T18:13:41.642Z,10.20
2019-01-20T18:16:13.006Z,18.10
2019-01-20T18:18:43.692Z,15.03
2019-01-20T18:21:14.321Z,9.40
2019-01-20T18:23:44.801Z,18.30
2019-01-20T18:26:15.331Z,12.10
2019-01-20T18:28:45.947Z,15.73
2019-01-20T18:31:16.457Z,8.93
2019-01-20T18:33:47.060Z,8.97
2019-01-20T18:36:17.524Z,13.00
2019-01-20T18:38:49.620Z,16.10
2019-01-20T18:41:21.172Z,14.87
2019-01-20T18:43:51.689Z,8.30
2019-01-20T18:46:23.356Z,14.03
2019-01-20T18:48:56.620Z,18.20
2019-01-20T18:51:32.317Z,19.53
2019-01-20T18:54:02.944Z,18.40
2019-01-20T18:56:33.449Z,18.37
2019-01-20T18:59:05.894Z,14.17
2019-01-20T19:01:36.567Z,15.43
2019-01-20T19:04:07.105Z,12.13
2019-01-20T19:06:37.839Z,11.53
2019-01-20T19:09:09.535Z,9.87
2019-01-20T19:11:46.213Z,9.80
2019-01-20T19:14:16.639Z,14.00
2019-01-20T19:16:47.252Z,7.40
2019-01-20T19:19:17.727Z,12.53
2019-01-20T19:21:48.311Z,15.50
2019-01-20T19:24:19.016Z,10.60
2019-01-20T19:26:49.663Z,9.57
2019-01-20T19:29:20.123Z,11.30
2019-01-20T19:31:50.618Z,17.03
2019-01-20T19:34:21.073Z,10.50
2019-01-20T19:36:51.821Z,10.60
2019-01-20T19:39:22.329Z,8.40
2019-01-20T19:41:52.845Z,10.57
2019-01-20T19:44:23.321Z,11.43
2019-01-20T19:46:53.954Z,13.17
2019-01-20T19:49:24.434Z,13.93
2019-01-20T19:51:55.921Z,18.47
2019-01-20T19:54:26.400Z,8.73
2019-01-20T19:56:56.842Z,14.60
2019-01-20T19:59:27.982Z,15.00
2019-01-20T20:01:58.590Z,10.33
2019-01-20T20:04:29.475Z,11.97
2019-01-20T20:07:00.073Z,15.63
2019-01-20T20:09:30.696Z,13.23
2019-01-20T20:12:01.311Z,10.13
2019-01-20T20:14:31.914Z,11.63
2019-01-20T20:17:02.483Z,14.50
2019-01-20T20:19:33.032Z,11.47
2019-01-20T20:22:03.735Z,18.57
2019-01-20T20:24:34.259Z,14.27
2019-01-20T20:27:04.832Z,16.27
2019-01-20T20:29:35.354Z,13.00
2019-01-20T20:32:06.117Z,28.13
2019-01-20T20:34:36.576Z,12.93
2019-01-20T20:37:07.115Z,15.20
2019-01-20T20:39:37.604Z,11.00
2019-01-20T20:42:08.100Z,15.70
2019-01-20T20:44:38.568Z,12.00
2019-01-20T20:47:09.058Z,11.30
2019-01-20T20:49:39.512Z,12.67
2019-01-20T20:52:10.017Z,11.93
2019-01-20T20:55:06.789Z,14.20
2019-01-20T20:57:37.706Z,12.27
2019-01-20T21:00:20.631Z,12.57
2019-01-20T21:02:51.434Z,12.47
2019-01-20T21:05:21.977Z,11.50
2019-01-20T21:07:52.444Z,13.30
2019-01-20T21:10:22.967Z,11.03
2019-01-20T21:12:53.587Z,12.00
2019-01-20T21:15:24.236Z,15.90
2019-01-20T21:17:56.572Z,10.67
2019-01-20T21:20:27.054Z,13.93
2019-01-20T21:22:57.504Z,14.60
2019-01-20T21:25:27.957Z,13.50
2019-01-20T21:27:58.457Z,14.53
2019-01-20T21:30:28.988Z,9.87
2019-01-20T21:32:59.850Z,15.27
2019-01-20T21:35:30.681Z,13.43
2019-01-20T21:38:06.775Z,13.83
2019-01-20T21:40:33.670Z,8.60
2019-01-20T21:43:04.167Z,16.00
2019-01-20T21:45:34.745Z,14.40
2019-01-20T21:48:06.002Z,12.90
2019-01-20T21:50:36.626Z,15.43
2019-01-20T21:53:08.151Z,9.67
2019-01-20T21:55:38.806Z,21.52
2019-01-20T21:58:09.249Z,12.53
2019-01-20T22:00:39.691Z,11.47
2019-01-20T22:03:10.114Z,10.97
2019-01-20T22:05:40.623Z,14.40
2019-01-20T22:08:11.183Z,14.17
2019-01-20T22:10:41.693Z,16.13
2019-01-20T22:13:12.173Z,15.57
2019-01-20T22:15:42.774Z,12.10
2019-01-20T22:18:13.273Z,15.27
2019-01-20T22:20:43.761Z,18.73
2019-01-20T22:23:14.181Z,7.57
2019-01-20T22:25:44.640Z,11.13
2019-01-20T22:28:15.161Z,15.80
2019-01-20T22:30:45.663Z,15.63
2019-01-20T22:33:16.094Z,14.93
2019-01-20T22:35:46.714Z,18.40
2019-01-20T22:38:17.220Z,16.07
2019-01-20T22:40:47.646Z,15.40
2019-01-20T22:43:18.052Z,9.63
2019-01-20T22:45:48.548Z,9.97
2019-01-20T22:48:18.958Z,11.70
2019-01-20T22:50:49.413Z,10.60
2019-01-20T22:53:19.845Z,19.73
2019-01-20T22:55:50.296Z,13.40
2019-01-20T22:58:20.715Z,11.40
2019-01-20T23:01:10.938Z,18.60
2019-01-20T23:03:41.349Z,18.20
2019-01-20T23:06:11.778Z,12.60
2019-01-20T23:08:42.220Z,15.63
2019-01-20T23:11:12.656Z,15.10
2019-01-20T23:13:43.128Z,16.37
2019-01-20T23:16:13.528Z,13.77
2019-01-20T23:18:43.981Z,19.00
2019-01-20T23:21:14.427Z,14.00
2019-01-20T23:23:44.820Z,13.60
2019-01-20T23:26:15.261Z,16.93
2019-01-20T23:28:45.751Z,12.70
2019-01-20T23:31:16.215Z,13.77
2019-01-20T23:33:46.637Z,10.70
2019-01-20T23:36:17.062Z,15.03
2019-01-20T23:38:47.486Z,12.33
2019-01-20T23:41:17.944Z,10.13
2019-01-20T23:43:48.350Z,22.23
2019-01-20T23:46:18.782Z,14.17
2019-01-20T23:48:49.204Z,17.90
2019-01-20T23:51:19.588Z,22.37
2019-01-20T23:53:49.998Z,14.97
2019-01-20T23:56:20.398Z,15.23
2019-01-20T23:58:50.810Z,11.53
